Time;durP1;ratioP1;P1;durP2;ratioP2;P2;SDS_P1;SDS_P2;PMS_P1;PMS_P2;Temp;Humidity;BMP_temperature;BMP_pressure;BME280_temperature;BME280_humidity;BME280_pressure;Samples;Min_cycle;Max_cycle;Signal;HPM_P1;HPM_P2
2022/02/14 00:00:16;;;;;;;11.77;7.68;;;;;;;;;;5005952;28;20057;-70
2022/02/14 00:02:44;;;;;;;12.55;7.68;;;;;;;;;;5033357;28;20477;-73
2022/02/14 00:05:13;;;;;;;11.15;7.72;;;;;;;;;;5033799;28;20041;-70
2022/02/14 00:07:40;;;;;;;13.95;8.35;;;;;;;;;;5033691;28;20503;-71
2022/02/14 00:10:11;;;;;;;13.18;9.25;;;;;;;;;;5016378;28;20049;-71
2022/02/14 00:12:42;;;;;;;13.65;8.57;;;;;;;;;;5033279;28;20048;-73
2022/02/14 00:15:10;;;;;;;15.10;9.10;;;;;;;;;;5016526;28;20041;-71
2022/02/14 00:17:38;;;;;;;19.85;8.90;;;;;;;;;;5034028;28;20065;-70
2022/02/14 00:20:09;;;;;;;13.73;8.73;;;;;;;;;;5033754;28;20408;-70
2022/02/14 00:22:37;;;;;;;13.10;9.27;;;;;;;;;;5034032;28;20045;-73
2022/02/14 00:25:06;;;;;;;16.83;9.60;;;;;;;;;;5034170;28;20049;-73
2022/02/14 00:27:34;;;;;;;12.35;8.93;;;;;;;;;;5033784;28;20126;-71
2022/02/14 00:30:01;;;;;;;18.02;9.82;;;;;;;;;;5015800;28;20041;-73
2022/02/14 00:32:31;;;;;;;17.80;10.43;;;;;;;;;;5033318;28;20385;-73
2022/02/14 00:34:59;;;;;;;17.67;9.60;;;;;;;;;;5033459;28;20492;-72
2022/02/14 00:37:27;;;;;;;13.48;9.00;;;;;;;;;;5033892;28;20037;-73
2022/02/14 00:39:54;;;;;;;11.63;9.38;;;;;;;;;;5033943;28;20049;-73
2022/02/14 00:42:23;;;;;;;15.85;9.30;;;;;;;;;;5033688;28;20037;-73
2022/02/14 00:44:52;;;;;;;13.98;9.65;;;;;;;;;;5033160;28;20048;-71
2022/02/14 00:47:20;;;;;;;14.15;8.23;;;;;;;;;;5033370;28;20049;-69
2022/02/14 00:49:50;;;;;;;14.45;8.52;;;;;;;;;;5033238;28;20049;-69
2022/02/14 00:52:18;;;;;;;14.32;8.30;;;;;;;;;;5033517;28;20037;-69
2022/02/14 00:54:45;;;;;;;11.40;8.27;;;;;;;;;;5033307;28;20056;-71
2022/02/14 00:57:13;;;;;;;13.57;8.82;;;;;;;;;;5032843;28;20095;-70
2022/02/14 00:59:41;;;;;;;14.93;9.02;;;;;;;;;;5032104;28;20465;-69
2022/02/14 01:02:09;;;;;;;14.38;8.95;;;;;;;;;;5032292;28;20086;-71
2022/02/14 01:04:36;;;;;;;12.98;8.48;;;;;;;;;;5032437;28;20047;-71
2022/02/14 01:07:06;;;;;;;15.63;9.85;;;;;;;;;;5032351;28;20033;-72
2022/02/14 01:09:33;;;;;;;17.13;9.93;;;;;;;;;;5032314;28;20061;-69
2022/02/14 01:12:01;;;;;;;15.15;8.68;;;;;;;;;;5032438;28;20041;-72
2022/02/14 01:14:30;;;;;;;17.80;9.15;;;;;;;;;;5032433;28;20041;-70
2022/02/14 01:16:57;;;;;;;20.98;9.68;;;;;;;;;;5032289;28;20512;-73
2022/02/14 01:19:32;;;;;;;17.00;9.45;;;;;;;;;;5032041;28;20150;-70
2022/02/14 01:22:00;;;;;;;15.07;9.45;;;;;;;;;;5014673;28;20050;-69
2022/02/14 01:24:27;;;;;;;15.10;9.07;;;;;;;;;;5031355;28;20497;-72
2022/02/14 01:26:56;;;;;;;12.60;9.40;;;;;;;;;;5029784;28;20466;-72
2022/02/14 01:29:24;;;;;;;20.67;9.68;;;;;;;;;;5014485;28;20520;-72
2022/02/14 01:31:51;;;;;;;12.88;8.90;;;;;;;;;;5014343;28;20048;-69
2022/02/14 01:34:20;;;;;;;12.68;9.50;;;;;;;;;;5032115;28;20151;-69
2022/02/14 01:36:47;;;;;;;14.15;8.57;;;;;;;;;;5032056;28;20046;-72
2022/02/14 01:39:15;;;;;;;16.15;9.15;;;;;;;;;;5029496;28;20405;-73
2022/02/14 01:41:43;;;;;;;14.02;8.80;;;;;;;;;;5032159;28;20037;-68
2022/02/14 01:44:11;;;;;;;19.75;9.40;;;;;;;;;;5031995;28;20056;-72
2022/02/14 01:46:39;;;;;;;13.45;8.63;;;;;;;;;;5014430;28;20111;-69
2022/02/14 01:49:07;;;;;;;14.68;8.40;;;;;;;;;;5014367;28;20440;-72
2022/02/14 01:51:34;;;;;;;15.63;8.63;;;;;;;;;;5029603;28;20087;-72
2022/02/14 01:54:02;;;;;;;16.58;8.95;;;;;;;;;;5031874;28;20407;-72
2022/02/14 01:56:30;;;;;;;11.57;8.45;;;;;;;;;;5031714;28;20052;-72
2022/02/14 01:58:59;;;;;;;13.20;8.18;;;;;;;;;;5031991;28;20421;-72
2022/02/14 02:01:27;;;;;;;13.75;8.10;;;;;;;;;;5032105;28;20045;-68
2022/02/14 02:03:54;;;;;;;15.52;8.55;;;;;;;;;;5011738;28;20037;-68
2022/02/14 02:06:22;;;;;;;12.95;8.27;;;;;;;;;;5024259;28;20033;-72
2022/02/14 02:08:50;;;;;;;12.38;8.35;;;;;;;;;;5030891;28;20052;-72
2022/02/14 02:14:12;;;;;;;11.50;8.00;;;;;;;;;;5031217;28;20060;-70
2022/02/14 02:16:39;;;;;;;14.52;8.30;;;;;;;;;;5031772;28;20151;-70
2022/02/14 02:19:08;;;;;;;14.38;8.73;;;;;;;;;;5031788;28;20038;-72
2022/02/14 02:21:35;;;;;;;15.98;8.45;;;;;;;;;;5028764;28;20045;-72
2022/02/14 02:24:04;;;;;;;17.75;8.63;;;;;;;;;;5031495;28;20042;-69
2022/02/14 02:26:32;;;;;;;13.90;7.82;;;;;;;;;;5031357;28;20523;-70
2022/02/14 02:28:59;;;;;;;14.55;7.93;;;;;;;;;;5031876;28;20389;-68
2022/02/14 02:31:27;;;;;;;16.30;8.07;;;;;;;;;;5031759;28;20045;-72
2022/02/14 02:33:54;;;;;;;10.57;8.35;;;;;;;;;;5014444;28;20045;-72
2022/02/14 02:36:29;;;;;;;15.85;8.30;;;;;;;;;;5035785;28;20038;-70
2022/02/14 02:38:56;;;;;;;13.80;8.20;;;;;;;;;;5036082;28;20045;-69
2022/02/14 02:41:26;;;;;;;12.82;8.50;;;;;;;;;;5035741;28;20523;-73
2022/02/14 02:43:57;;;;;;;14.25;8.70;;;;;;;;;;5035155;28;20037;-73
2022/02/14 02:46:24;;;;;;;10.88;7.70;;;;;;;;;;5035594;28;20041;-70
2022/02/14 02:48:52;;;;;;;17.10;8.38;;;;;;;;;;5035263;28;20037;-73
2022/02/14 02:51:22;;;;;;;13.38;9.27;;;;;;;;;;5035421;28;20052;-71
2022/02/14 02:53:50;;;;;;;11.63;7.68;;;;;;;;;;5035249;28;20040;-72
2022/02/14 02:56:18;;;;;;;17.13;8.88;;;;;;;;;;5034925;28;20151;-73
2022/02/14 02:58:45;;;;;;;12.40;8.05;;;;;;;;;;5035128;28;20137;-73
2022/02/14 03:01:14;;;;;;;11.02;8.15;;;;;;;;;;5035337;28;20037;-73
2022/02/14 03:03:44;;;;;;;15.20;8.90;;;;;;;;;;5017453;28;20070;-72
2022/02/14 03:06:11;;;;;;;13.93;8.20;;;;;;;;;;5035062;28;20124;-69
2022/02/14 03:08:40;;;;;;;12.23;8.45;;;;;;;;;;5034635;28;20092;-70
2022/02/14 03:11:07;;;;;;;12.55;8.10;;;;;;;;;;5035326;28;20481;-73
2022/02/14 03:13:35;;;;;;;14.23;7.43;;;;;;;;;;5017569;28;20048;-71
2022/02/14 03:16:02;;;;;;;14.10;8.18;;;;;;;;;;5035224;28;20040;-73
2022/02/14 03:18:30;;;;;;;19.05;8.57;;;;;;;;;;5035096;28;20041;-71
2022/02/14 03:20:58;;;;;;;9.95;7.43;;;;;;;;;;5017481;28;20046;-71
2022/02/14 03:23:27;;;;;;;12.23;8.10;;;;;;;;;;5035043;28;20046;-73
2022/02/14 03:25:55;;;;;;;16.95;8.93;;;;;;;;;;5034678;28;20041;-71
2022/02/14 03:28:22;;;;;;;16.58;7.78;;;;;;;;;;5034694;28;20052;-73
2022/02/14 03:30:51;;;;;;;11.30;7.32;;;;;;;;;;5017350;28;20061;-72
2022/02/14 03:33:19;;;;;;;13.20;7.43;;;;;;;;;;5034638;28;20041;-73
2022/02/14 03:35:48;;;;;;;10.40;7.32;;;;;;;;;;5034804;28;20041;-71
2022/02/14 03:38:16;;;;;;;17.67;7.93;;;;;;;;;;5034798;28;20124;-72
2022/02/14 03:40:43;;;;;;;10.68;7.28;;;;;;;;;;5034913;28;20052;-73
2022/02/14 03:43:11;;;;;;;9.13;7.10;;;;;;;;;;5034775;28;20056;-73
2022/02/14 03:45:40;;;;;;;11.55;6.72;;;;;;;;;;5033300;28;20493;-69
2022/02/14 03:48:08;;;;;;;13.65;7.35;;;;;;;;;;5016886;28;20049;-73
2022/02/14 03:50:36;;;;;;;12.90;7.10;;;;;;;;;;5034630;28;20053;-71
2022/02/14 03:53:04;;;;;;;11.95;7.60;;;;;;;;;;5034347;28;20117;-70
2022/02/14 03:55:32;;;;;;;11.68;7.18;;;;;;;;;;5034305;28;20033;-70
2022/02/14 03:57:59;;;;;;;10.43;7.13;;;;;;;;;;5034058;28;20525;-73
2022/02/14 04:00:27;;;;;;;15.77;7.13;;;;;;;;;;5034222;28;20400;-73
2022/02/14 04:02:55;;;;;;;18.05;7.78;;;;;;;;;;5034130;28;20159;-70
2022/02/14 04:05:23;;;;;;;11.43;7.28;;;;;;;;;;5034292;28;20049;-70
2022/02/14 04:07:51;;;;;;;16.80;7.57;;;;;;;;;;5016001;28;20049;-71
2022/02/14 04:10:18;;;;;;;11.68;7.25;;;;;;;;;;5033825;28;20568;-73
2022/02/14 04:12:46;;;;;;;10.85;6.93;;;;;;;;;;5033955;28;20041;-73
2022/02/14 04:15:13;;;;;;;12.63;8.18;;;;;;;;;;5034002;28;20469;-69
2022/02/14 04:17:41;;;;;;;14.02;7.55;;;;;;;;;;5033773;28;20045;-71
2022/02/14 04:20:09;;;;;;;11.88;7.25;;;;;;;;;;5015601;28;20056;-70
2022/02/14 04:22:38;;;;;;;14.60;7.70;;;;;;;;;;5034112;28;20052;-73
2022/02/14 04:25:13;;;;;;;12.50;7.80;;;;;;;;;;5033635;28;20069;-73
2022/02/14 04:27:43;;;;;;;11.07;7.03;;;;;;;;;;5033461;28;20041;-70
2022/02/14 04:30:11;;;;;;;14.63;7.22;;;;;;;;;;5033438;28;20045;-73
2022/02/14 04:32:39;;;;;;;16.85;7.63;;;;;;;;;;5033350;28;20088;-71
2022/02/14 04:35:07;;;;;;;16.88;8.05;;;;;;;;;;5033536;28;20041;-73
2022/02/14 04:37:35;;;;;;;10.48;7.53;;;;;;;;;;5033731;28;20397;-71
2022/02/14 04:40:04;;;;;;;11.85;7.88;;;;;;;;;;5033345;28;20045;-73
2022/02/14 04:42:36;;;;;;;10.18;7.78;;;;;;;;;;5033287;28;20095;-73
2022/02/14 04:45:03;;;;;;;12.98;7.72;;;;;;;;;;5033129;28;20041;-71
2022/02/14 04:47:32;;;;;;;13.95;7.63;;;;;;;;;;5033307;28;20041;-70
2022/02/14 04:49:59;;;;;;;10.73;7.20;;;;;;;;;;5033269;28;20385;-69
2022/02/14 04:52:26;;;;;;;16.15;8.07;;;;;;;;;;5033482;28;20409;-71
2022/02/14 04:54:54;;;;;;;15.88;7.88;;;;;;;;;;5033259;28;20050;-69
2022/02/14 04:57:23;;;;;;;13.98;7.93;;;;;;;;;;5015017;28;20053;-73
2022/02/14 04:59:51;;;;;;;12.93;7.00;;;;;;;;;;5033342;28;20052;-73
2022/02/14 05:02:18;;;;;;;11.90;7.22;;;;;;;;;;5032820;28;20053;-72
2022/02/14 05:04:46;;;;;;;14.23;7.50;;;;;;;;;;5033159;28;20045;-72
2022/02/14 05:07:13;;;;;;;13.35;7.65;;;;;;;;;;5015417;28;20038;-73
2022/02/14 05:09:41;;;;;;;11.75;7.35;;;;;;;;;;5032456;28;20042;-73
2022/02/14 05:12:08;;;;;;;17.15;9.60;;;;;;;;;;5015406;28;20048;-70
2022/02/14 05:14:37;;;;;;;11.13;8.25;;;;;;;;;;5032886;28;20508;-73
2022/02/14 05:17:05;;;;;;;14.45;7.82;;;;;;;;;;5032916;28;20044;-72
2022/02/14 05:19:32;;;;;;;11.15;7.70;;;;;;;;;;5014736;28;20417;-73
2022/02/14 05:21:59;;;;;;;11.88;7.43;;;;;;;;;;5032659;28;20116;-72
2022/02/14 05:24:27;;;;;;;10.70;7.85;;;;;;;;;;5032634;28;20037;-70
2022/02/14 05:26:55;;;;;;;12.15;7.88;;;;;;;;;;5015063;28;20041;-71
2022/02/14 05:29:23;;;;;;;13.43;8.30;;;;;;;;;;5032338;28;20366;-71
2022/02/14 05:31:56;;;;;;;9.50;7.85;;;;;;;;;;5032570;28;20492;-70
2022/02/14 05:34:26;;;;;;;13.90;8.45;;;;;;;;;;5032749;28;20041;-71
2022/02/14 05:36:54;;;;;;;17.33;8.52;;;;;;;;;;5032823;28;20076;-71
2022/02/14 05:39:21;;;;;;;12.75;8.57;;;;;;;;;;5032674;28;20052;-73
2022/02/14 05:41:49;;;;;;;14.30;9.20;;;;;;;;;;5033012;28;20049;-69
2022/02/14 05:44:16;;;;;;;13.45;8.13;;;;;;;;;;5032294;28;20485;-73
2022/02/14 05:46:45;;;;;;;12.30;8.80;;;;;;;;;;5018674;28;20401;-72
2022/02/14 05:49:14;;;;;;;12.70;9.10;;;;;;;;;;5012417;28;20038;-73
2022/02/14 05:51:42;;;;;;;17.80;11.85;;;;;;;;;;5026375;28;20045;-70
2022/02/14 05:54:10;;;;;;;15.13;9.30;;;;;;;;;;5015097;28;20124;-71
2022/02/14 05:56:38;;;;;;;16.40;9.20;;;;;;;;;;5011028;28;20128;-71
2022/02/14 05:59:06;;;;;;;17.90;9.48;;;;;;;;;;5026668;28;20057;-74
2022/02/14 06:01:33;;;;;;;13.00;9.20;;;;;;;;;;5031722;28;20037;-73
2022/02/14 06:04:05;;;;;;;11.90;9.27;;;;;;;;;;5031979;28;20052;-71
2022/02/14 06:06:39;;;;;;;19.05;9.25;;;;;;;;;;5032169;28;20103;-71
2022/02/14 06:09:08;;;;;;;19.60;8.82;;;;;;;;;;5032619;28;20038;-72
2022/02/14 06:11:35;;;;;;;11.88;9.38;;;;;;;;;;5036673;28;20046;-71
2022/02/14 06:14:04;;;;;;;16.23;9.65;;;;;;;;;;5036571;28;20055;-71
2022/02/14 06:16:45;;;;;;;16.65;10.52;;;;;;;;;;5036566;28;20034;-71
2022/02/14 06:19:15;;;;;;;13.52;10.05;;;;;;;;;;5036370;28;20064;-71
2022/02/14 06:21:44;;;;;;;15.75;10.60;;;;;;;;;;5035602;28;20057;-71
2022/02/14 06:24:13;;;;;;;14.07;9.93;;;;;;;;;;5036276;28;20511;-71
2022/02/14 06:26:46;;;;;;;15.85;9.15;;;;;;;;;;5035964;28;20046;-71
2022/02/14 06:29:14;;;;;;;21.70;9.48;;;;;;;;;;5026288;28;20069;-72
2022/02/14 06:31:42;;;;;;;17.48;9.00;;;;;;;;;;5029229;28;20038;-72
2022/02/14 06:34:09;;;;;;;12.32;8.73;;;;;;;;;;5034362;28;20038;-71
2022/02/14 06:36:37;;;;;;;17.80;8.93;;;;;;;;;;5035306;28;20040;-68
2022/02/14 06:39:04;;;;;;;20.95;10.68;;;;;;;;;;5031289;28;20511;-69
2022/02/14 06:41:35;;;;;;;19.48;9.85;;;;;;;;;;5032729;28;20042;-70
2022/02/14 06:44:02;;;;;;;18.45;8.55;;;;;;;;;;5054502;28;20045;-72
2022/02/14 06:46:30;;;;;;;13.30;7.32;;;;;;;;;;5038424;28;20124;-71
2022/02/14 06:49:06;;;;;;;13.10;7.00;;;;;;;;;;5034531;28;20041;-70
2022/02/14 06:51:37;;;;;;;11.82;6.70;;;;;;;;;;5018943;28;20048;-72
2022/02/14 06:54:04;;;;;;;10.85;7.03;;;;;;;;;;5035299;28;20044;-71
2022/02/14 06:56:35;;;;;;;13.98;7.10;;;;;;;;;;5035228;28;20045;-70
2022/02/14 06:59:02;;;;;;;12.68;6.70;;;;;;;;;;5019391;28;20393;-72
2022/02/14 07:01:30;;;;;;;11.10;6.20;;;;;;;;;;4998498;28;20061;-71
2022/02/14 07:03:58;;;;;;;12.13;6.32;;;;;;;;;;5015634;28;20044;-72
2022/02/14 07:06:25;;;;;;;11.70;6.15;;;;;;;;;;5015948;28;20048;-71
2022/02/14 07:08:53;;;;;;;7.85;6.15;;;;;;;;;;5015311;28;20037;-71
2022/02/14 07:11:27;;;;;;;11.57;5.95;;;;;;;;;;5016252;28;20068;-69
2022/02/14 07:13:54;;;;;;;11.90;6.15;;;;;;;;;;5015964;28;20206;-71
2022/02/14 07:16:21;;;;;;;14.90;4.88;;;;;;;;;;5015730;28;20041;-70
2022/02/14 07:18:49;;;;;;;10.13;4.75;;;;;;;;;;5016051;28;20037;-70
2022/02/14 07:21:19;;;;;;;9.77;5.03;;;;;;;;;;5015382;28;20092;-72
2022/02/14 07:23:50;;;;;;;12.23;5.80;;;;;;;;;;5015874;28;20057;-73
2022/02/14 07:26:17;;;;;;;7.18;4.00;;;;;;;;;;5015537;28;20137;-72
2022/02/14 07:28:48;;;;;;;9.27;4.90;;;;;;;;;;4998670;28;20049;-70
2022/02/14 07:31:18;;;;;;;9.77;5.47;;;;;;;;;;5007693;28;20038;-71
2022/02/14 07:33:45;;;;;;;8.98;4.32;;;;;;;;;;5014863;28;20042;-72
2022/02/14 07:36:13;;;;;;;11.40;5.25;;;;;;;;;;5015462;28;20389;-71
2022/02/14 07:38:42;;;;;;;9.00;4.90;;;;;;;;;;5014549;28;20058;-72
2022/02/14 07:41:10;;;;;;;6.75;4.63;;;;;;;;;;5015009;28;20050;-72
2022/02/14 07:43:37;;;;;;;7.80;4.80;;;;;;;;;;5014779;28;20528;-72
2022/02/14 07:46:05;;;;;;;7.85;5.20;;;;;;;;;;4997680;28;20049;-72
2022/02/14 07:48:34;;;;;;;7.53;5.82;;;;;;;;;;4998093;28;20048;-71
2022/02/14 07:51:02;;;;;;;8.02;4.80;;;;;;;;;;5015262;28;20033;-72
2022/02/14 07:53:30;;;;;;;6.95;4.97;;;;;;;;;;5014939;28;20477;-72
2022/02/14 07:55:57;;;;;;;7.57;4.70;;;;;;;;;;5012865;28;20153;-71
2022/02/14 07:58:27;;;;;;;6.47;4.30;;;;;;;;;;5004483;28;20077;-72
2022/02/14 08:00:54;;;;;;;8.57;4.70;;;;;;;;;;4995383;28;20049;-71
2022/02/14 08:03:23;;;;;;;7.57;5.13;;;;;;;;;;4995133;28;20046;-71
2022/02/14 08:05:50;;;;;;;7.70;5.07;;;;;;;;;;4995336;28;20049;-70
2022/02/14 08:08:18;;;;;;;7.90;6.13;;;;;;;;;;4994977;28;20047;-72
2022/02/14 08:10:53;;;;;;;12.10;6.15;;;;;;;;;;4995275;28;20035;-70
2022/02/14 08:13:21;;;;;;;9.38;5.65;;;;;;;;;;4994910;28;20434;-72
2022/02/14 08:15:50;;;;;;;6.82;5.10;;;;;;;;;;4995273;28;20521;-70
2022/02/14 08:18:17;;;;;;;8.20;4.30;;;;;;;;;;4987403;28;20038;-71
2022/02/14 08:20:46;;;;;;;10.68;3.97;;;;;;;;;;4994049;28;20046;-72
2022/02/14 08:23:15;;;;;;;5.28;3.60;;;;;;;;;;4994862;28;20116;-72
2022/02/14 08:25:44;;;;;;;7.32;4.10;;;;;;;;;;4994676;28;20101;-71
2022/02/14 08:28:11;;;;;;;7.45;3.90;;;;;;;;;;4994834;28;20042;-71
2022/02/14 08:30:44;;;;;;;6.22;3.72;;;;;;;;;;4994724;28;20093;-70
2022/02/14 08:33:12;;;;;;;7.00;4.25;;;;;;;;;;4993723;28;20042;-72
2022/02/14 08:35:42;;;;;;;9.40;5.50;;;;;;;;;;4994749;28;20437;-70
2022/02/14 08:38:10;;;;;;;7.97;4.93;;;;;;;;;;4994845;28;20046;-71
2022/02/14 08:40:46;;;;;;;6.80;5.18;;;;;;;;;;4994927;28;20394;-70
2022/02/14 08:43:16;;;;;;;21.25;12.20;;;;;;;;;;4994545;28;20034;-70
2022/02/14 08:46:02;;;;;;;21.13;13.55;;;;;;;;;;4975475;28;20118;-71
2022/02/14 08:48:43;;;;;;;18.27;11.73;;;;;;;;;;4994327;28;20062;-70
2022/02/14 08:51:11;;;;;;;19.95;10.93;;;;;;;;;;4994499;28;20414;-71
2022/02/14 08:53:40;;;;;;;13.25;9.57;;;;;;;;;;4994079;28;20043;-71
2022/02/14 08:56:08;;;;;;;12.85;8.20;;;;;;;;;;4993524;28;20038;-72
2022/02/14 08:58:36;;;;;;;9.63;6.63;;;;;;;;;;4993716;28;20101;-71
2022/02/14 09:01:05;;;;;;;14.55;7.35;;;;;;;;;;4994105;28;20042;-71
2022/02/14 09:03:33;;;;;;;10.07;7.72;;;;;;;;;;4993788;28;20042;-69
2022/02/14 09:06:00;;;;;;;10.50;7.63;;;;;;;;;;4974496;28;20053;-70
2022/02/14 09:08:28;;;;;;;9.82;7.53;;;;;;;;;;4993493;28;20409;-70
2022/02/14 09:10:58;;;;;;;11.80;7.05;;;;;;;;;;4994078;28;20035;-71
2022/02/14 09:13:28;;;;;;;9.85;7.47;;;;;;;;;;4993974;28;20605;-71
2022/02/14 09:15:56;;;;;;;11.85;7.00;;;;;;;;;;4994057;28;20125;-71
2022/02/14 09:18:26;;;;;;;11.52;5.38;;;;;;;;;;4993837;28;20042;-73
2022/02/14 09:20:58;;;;;;;7.05;4.57;;;;;;;;;;4993564;28;20375;-71
2022/02/14 09:23:26;;;;;;;6.30;4.80;;;;;;;;;;4993897;28;20106;-71
2022/02/14 09:25:54;;;;;;;6.45;4.82;;;;;;;;;;4993755;28;20052;-72
2022/02/14 09:28:23;;;;;;;8.20;4.90;;;;;;;;;;4993644;28;20038;-73
2022/02/14 09:30:51;;;;;;;10.65;5.10;;;;;;;;;;4993459;28;20042;-71
2022/02/14 09:33:22;;;;;;;6.03;3.70;;;;;;;;;;4992986;28;20042;-71
2022/02/14 09:35:49;;;;;;;6.47;4.10;;;;;;;;;;4972850;28;20064;-71
2022/02/14 09:38:17;;;;;;;6.85;3.92;;;;;;;;;;4985753;28;20530;-71
2022/02/14 09:40:46;;;;;;;5.10;4.32;;;;;;;;;;4973094;28;20062;-70
2022/02/14 09:43:14;;;;;;;8.40;4.50;;;;;;;;;;4993278;28;20524;-71
2022/02/14 09:45:44;;;;;;;7.82;4.68;;;;;;;;;;4992243;28;20062;-71
2022/02/14 09:48:13;;;;;;;7.65;5.28;;;;;;;;;;4993308;28;20395;-69
2022/02/14 09:50:41;;;;;;;9.02;5.88;;;;;;;;;;4993003;28;20049;-71
2022/02/14 09:53:11;;;;;;;10.10;5.90;;;;;;;;;;4993292;28;20406;-71
2022/02/14 09:55:44;;;;;;;7.85;5.30;;;;;;;;;;4993090;28;20045;-72
2022/02/14 09:58:11;;;;;;;7.18;5.80;;;;;;;;;;5101144;23;20353;-73
2022/02/14 10:00:39;;;;;;;8.07;5.53;;;;;;;;;;5032852;28;20041;-71
2022/02/14 10:03:14;;;;;;;8.05;5.50;;;;;;;;;;5032992;28;20046;-72
2022/02/14 10:05:42;;;;;;;8.23;5.57;;;;;;;;;;5033033;28;20495;-71
2022/02/14 10:08:11;;;;;;;7.00;5.15;;;;;;;;;;5032869;28;20116;-72
2022/02/14 10:10:42;;;;;;;8.05;5.65;;;;;;;;;;5032536;28;20042;-70
2022/02/14 10:13:10;;;;;;;6.20;4.20;;;;;;;;;;5032870;28;20042;-72
2022/02/14 10:15:49;;;;;;;4.90;3.88;;;;;;;;;;5032832;28;20049;-71
2022/02/14 10:18:33;;;;;;;13.25;5.03;;;;;;;;;;5032727;28;20038;-72
2022/02/14 10:21:20;;;;;;;8.57;5.50;;;;;;;;;;5032656;28;20046;-70
2022/02/14 10:24:04;;;;;;;5.18;4.45;;;;;;;;;;5032759;28;20037;-71
2022/02/14 10:26:36;;;;;;;5.88;4.53;;;;;;;;;;5032630;28;20120;-71
2022/02/14 10:29:13;;;;;;;6.45;4.55;;;;;;;;;;5032508;28;20124;-71
2022/02/14 10:31:46;;;;;;;6.68;4.30;;;;;;;;;;5032621;28;20041;-71
2022/02/14 10:34:18;;;;;;;6.80;4.50;;;;;;;;;;5031863;28;20493;-71
2022/02/14 10:36:46;;;;;;;4.70;3.75;;;;;;;;;;5014531;28;20580;-71
2022/02/14 10:39:22;;;;;;;4.82;4.22;;;;;;;;;;5032464;28;20057;-71
2022/02/14 10:41:55;;;;;;;5.75;4.10;;;;;;;;;;5014701;28;20428;-71
2022/02/14 10:47:19;;;;;;;3.78;3.15;;;;;;;;;;5032608;28;20091;-69
2022/02/14 10:50:04;;;;;;;5.55;3.50;;;;;;;;;;5032288;28;20064;-72
2022/02/14 10:52:34;;;;;;;4.05;3.17;;;;;;;;;;5032331;28;20396;-69
2022/02/14 10:55:06;;;;;;;7.50;3.10;;;;;;;;;;5032368;28;20045;-70
2022/02/14 10:57:36;;;;;;;5.57;2.60;;;;;;;;;;5035095;28;20078;-70
2022/02/14 11:00:14;;;;;;;3.92;2.40;;;;;;;;;;5035958;28;20046;-71
2022/02/14 11:02:43;;;;;;;4.07;2.30;;;;;;;;;;5035531;28;20065;-71
2022/02/14 11:05:13;;;;;;;1.92;1.67;;;;;;;;;;5035798;28;20405;-72
2022/02/14 11:07:44;;;;;;;3.58;1.80;;;;;;;;;;5035456;28;20079;-71
2022/02/14 11:10:12;;;;;;;2.92;1.58;;;;;;;;;;5034837;28;20048;-70
2022/02/14 11:12:41;;;;;;;3.78;1.92;;;;;;;;;;5018008;28;20068;-70
2022/02/14 11:15:16;;;;;;;4.78;2.15;;;;;;;;;;5035225;28;20048;-71
2022/02/14 11:17:48;;;;;;;2.88;1.77;;;;;;;;;;5035349;28;20033;-72
2022/02/14 11:20:16;;;;;;;3.63;2.00;;;;;;;;;;5035099;28;20060;-71
2022/02/14 11:22:45;;;;;;;4.10;1.73;;;;;;;;;;5034840;28;20400;-71
2022/02/14 11:25:18;;;;;;;4.72;2.42;;;;;;;;;;5035144;28;20044;-70
2022/02/14 11:27:53;;;;;;;4.40;2.20;;;;;;;;;;5034591;28;20075;-71
2022/02/14 11:30:24;;;;;;;3.65;2.55;;;;;;;;;;5034992;28;20041;-69
2022/02/14 11:33:19;;;;;;;5.70;2.97;;;;;;;;;;5034903;28;20042;-71
2022/02/14 11:36:06;;;;;;;5.63;3.25;;;;;;;;;;5035013;28;20121;-69
2022/02/14 11:38:45;;;;;;;2.33;1.75;;;;;;;;;;5034996;28;20124;-71
2022/02/14 11:41:28;;;;;;;3.25;1.50;;;;;;;;;;5035284;28;20104;-71
2022/02/14 11:44:22;;;;;;;3.45;1.80;;;;;;;;;;5018256;28;20362;-71
2022/02/14 11:46:56;;;;;;;1.60;1.50;;;;;;;;;;5034795;28;20068;-72
2022/02/14 11:49:37;;;;;;;4.82;2.05;;;;;;;;;;5034577;28;20120;-72
2022/02/14 11:52:30;;;;;;;5.93;3.47;;;;;;;;;;5034746;28;20052;-72
2022/02/14 11:54:59;;;;;;;6.18;3.50;;;;;;;;;;5034732;28;20117;-72
2022/02/14 11:57:36;;;;;;;4.75;3.40;;;;;;;;;;5034083;28;20046;-72
2022/02/14 12:00:13;;;;;;;6.68;3.47;;;;;;;;;;5034553;28;20049;-70
2022/02/14 12:02:42;;;;;;;3.85;3.20;;;;;;;;;;5016585;28;20057;-72
2022/02/14 12:05:10;;;;;;;5.22;3.58;;;;;;;;;;5034107;28;20041;-72
2022/02/14 12:07:41;;;;;;;10.27;4.00;;;;;;;;;;5033223;28;20045;-72
2022/02/14 12:10:15;;;;;;;6.18;4.43;;;;;;;;;;5033530;28;20125;-71
2022/02/14 12:12:45;;;;;;;8.10;3.92;;;;;;;;;;5033662;28;20045;-71
2022/02/14 12:21:07;;;;;;;6.45;3.95;;;;;;;;;;5033406;28;20128;-71
2022/02/14 12:23:56;;;;;;;6.22;4.13;;;;;;;;;;5034253;28;20066;-72
2022/02/14 12:26:26;;;;;;;6.85;4.10;;;;;;;;;;5034099;28;20041;-72
2022/02/14 12:29:35;;;;;;;6.45;4.43;;;;;;;;;;5033975;28;20059;-70
2022/02/14 12:32:05;;;;;;;9.65;5.10;;;;;;;;;;5033823;28;20159;-69
2022/02/14 12:34:37;;;;;;;4.88;3.70;;;;;;;;;;5033639;28;20040;-69
2022/02/14 12:37:14;;;;;;;5.22;3.35;;;;;;;;;;5033924;28;20113;-69
2022/02/14 12:39:42;;;;;;;3.88;3.10;;;;;;;;;;5033715;28;20095;-70
2022/02/14 12:42:14;;;;;;;5.57;3.22;;;;;;;;;;5033767;28;20041;-70
2022/02/14 12:44:43;;;;;;;4.27;3.27;;;;;;;;;;5033571;28;20378;-71
2022/02/14 12:47:12;;;;;;;4.97;3.67;;;;;;;;;;5033709;28;20047;-72
2022/02/14 12:49:40;;;;;;;3.75;2.95;;;;;;;;;;5016184;28;20038;-69
2022/02/14 12:52:10;;;;;;;9.35;3.88;;;;;;;;;;5033442;28;20049;-73
2022/02/14 12:54:39;;;;;;;5.53;3.75;;;;;;;;;;5030675;28;20465;-71
2022/02/14 12:57:07;;;;;;;4.30;3.25;;;;;;;;;;5021785;28;20121;-71
2022/02/14 12:59:35;;;;;;;5.97;3.03;;;;;;;;;;5024760;28;20128;-71
2022/02/14 13:02:02;;;;;;;5.03;3.15;;;;;;;;;;5032551;28;20055;-72
2022/02/14 13:04:30;;;;;;;6.20;3.53;;;;;;;;;;5033263;28;20442;-71
2022/02/14 13:06:59;;;;;;;6.22;3.47;;;;;;;;;;5015373;28;20049;-72
2022/02/14 13:09:30;;;;;;;4.68;3.20;;;;;;;;;;5032824;28;20492;-72
2022/02/14 13:11:59;;;;;;;6.70;3.10;;;;;;;;;;5032996;28;20042;-71
2022/02/14 13:14:31;;;;;;;6.10;3.15;;;;;;;;;;5031745;28;20034;-72
2022/02/14 13:17:00;;;;;;;2.92;2.60;;;;;;;;;;5032532;28;20064;-71
2022/02/14 13:19:29;;;;;;;5.38;2.88;;;;;;;;;;5032267;28;20056;-71
2022/02/14 13:21:57;;;;;;;7.38;3.70;;;;;;;;;;5032651;28;20120;-71
2022/02/14 13:24:34;;;;;;;7.00;3.13;;;;;;;;;;5033170;28;20052;-71
2022/02/14 13:27:14;;;;;;;6.70;2.58;;;;;;;;;;5009010;28;20046;-72
2022/02/14 13:29:43;;;;;;;4.45;2.33;;;;;;;;;;5020819;28;20046;-71
2022/02/14 13:32:12;;;;;;;3.28;2.55;;;;;;;;;;5022501;28;20048;-71
2022/02/14 13:35:00;;;;;;;4.32;2.38;;;;;;;;;;5019864;28;20485;-72
2022/02/14 13:37:35;;;;;;;4.50;2.40;;;;;;;;;;5004067;28;20335;-73
2022/02/14 13:40:22;;;;;;;5.60;2.65;;;;;;;;;;5027041;28;20505;-70
2022/02/14 13:42:54;;;;;;;8.40;3.40;;;;;;;;;;5024060;28;20149;-72
2022/02/14 13:45:23;;;;;;;3.88;2.97;;;;;;;;;;5027485;28;20091;-72
2022/02/14 13:48:14;;;;;;;6.90;2.70;;;;;;;;;;5026102;28;20049;-71
2022/02/14 13:50:42;;;;;;;5.82;3.13;;;;;;;;;;5017862;28;20076;-70
2022/02/14 13:53:21;;;;;;;3.92;2.45;;;;;;;;;;5027518;28;20109;-70
2022/02/14 13:56:06;;;;;;;3.33;2.30;;;;;;;;;;5003738;28;20065;-72
2022/02/14 13:58:38;;;;;;;4.70;3.05;;;;;;;;;;5024567;28;20500;-71
2022/02/14 14:01:22;;;;;;;3.33;2.78;;;;;;;;;;5024591;28;20036;-71
2022/02/14 14:03:54;;;;;;;4.00;2.70;;;;;;;;;;5049844;28;20033;-69
2022/02/14 14:06:23;;;;;;;3.80;3.05;;;;;;;;;;5050447;28;20045;-69
2022/02/14 14:08:55;;;;;;;5.20;3.40;;;;;;;;;;5049966;28;20047;-72
2022/02/14 14:11:30;;;;;;;7.15;3.20;;;;;;;;;;5049266;28;20037;-72
2022/02/14 14:13:57;;;;;;;7.20;2.60;;;;;;;;;;5050672;28;20380;-73
2022/02/14 14:16:25;;;;;;;3.78;2.70;;;;;;;;;;5024815;28;20044;-72
2022/02/14 14:18:56;;;;;;;6.90;3.00;;;;;;;;;;5050365;28;20052;-70
2022/02/14 14:21:24;;;;;;;6.82;2.78;;;;;;;;;;5049813;28;20040;-73
2022/02/14 14:23:53;;;;;;;3.88;3.00;;;;;;;;;;5050346;28;20580;-71
2022/02/14 14:26:23;;;;;;;5.82;3.22;;;;;;;;;;5045063;28;20051;-73
2022/02/14 14:28:53;;;;;;;6.10;3.13;;;;;;;;;;5051650;28;20071;-72
2022/02/14 14:31:26;;;;;;;6.63;3.17;;;;;;;;;;5053978;28;20040;-73
2022/02/14 14:33:54;;;;;;;8.32;3.60;;;;;;;;;;5055555;28;20061;-71
2022/02/14 14:36:21;;;;;;;5.50;3.40;;;;;;;;;;5055629;28;20067;-71
2022/02/14 14:38:54;;;;;;;6.22;3.58;;;;;;;;;;5055507;28;20119;-73
2022/02/14 14:41:21;;;;;;;;;;;;;;;;;;5038386;28;20468;-71
2022/02/14 14:43:51;;;;;;;6.90;3.85;;;;;;;;;;5055324;28;19948;-73
2022/02/14 14:46:22;;;;;;;6.30;3.47;;;;;;;;;;5055721;28;20049;-72
2022/02/14 14:48:49;;;;;;;5.53;2.97;;;;;;;;;;5054928;28;20047;-70
2022/02/14 14:51:16;;;;;;;6.10;3.40;;;;;;;;;;5036571;28;20509;-71
2022/02/14 14:53:46;;;;;;;7.18;3.47;;;;;;;;;;5055883;28;20041;-70
2022/02/14 14:56:14;;;;;;;6.55;3.50;;;;;;;;;;5037825;28;20037;-73
2022/02/14 14:58:41;;;;;;;4.63;3.60;;;;;;;;;;5055248;28;20127;-73
2022/02/14 15:01:09;;;;;;;7.35;3.42;;;;;;;;;;5055667;28;20045;-70
2022/02/14 15:03:43;;;;;;;6.30;3.17;;;;;;;;;;5055255;28;20503;-70